Time;durP1;ratioP1;P1;durP2;ratioP2;P2;SDS_P1;SDS_P2;PMS_P1;PMS_P2;Temp;Humidity;BMP_temperature;BMP_pressure;BME280_temperature;BME280_humidity;BME280_pressure;Samples;Min_cycle;Max_cycle;Signal;HPM_P1;HPM_P2
2022/02/21 00:01:16;;;;;;;33.18;15.53;;;;;;;-0.61;68.25;97581.31;1719189;83;20998;-80
2022/02/21 00:03:43;;;;;;;33.75;15.00;;;;;;;-0.62;68.13;97577.39;1719387;83;21458;-79
2022/02/21 00:06:10;;;;;;;33.28;14.80;;;;;;;-0.69;68.32;97578.64;1719404;83;21077;-80
2022/02/21 00:08:36;;;;;;;30.55;14.68;;;;;;;-0.69;68.31;97573.44;1719208;83;21024;-80
2022/02/21 00:11:03;;;;;;;31.30;15.15;;;;;;;-0.74;68.16;97575.13;1719415;82;21053;-80
2022/02/21 00:13:29;;;;;;;33.67;15.68;;;;;;;-0.74;68.41;97579.03;1719466;83;20969;-80
2022/02/21 00:15:56;;;;;;;40.03;15.55;;;;;;;-0.73;68.58;97574.27;1719329;83;21455;-79
2022/02/21 00:18:23;;;;;;;29.18;14.55;;;;;;;-0.72;68.76;97573.41;1710566;82;21369;-80
2022/02/21 00:20:49;;;;;;;30.70;14.63;;;;;;;-0.74;68.66;97569.93;1749276;82;20994;-80
2022/02/21 00:23:15;;;;;;;29.15;12.45;;;;;;;-0.71;68.60;97571.69;1749154;82;21034;-76
2022/02/21 00:25:42;;;;;;;28.20;12.70;;;;;;;-0.76;68.93;97566.42;1749117;82;21113;-76
2022/02/21 00:28:08;;;;;;;35.00;13.95;;;;;;;-0.83;68.87;97558.98;1720908;82;20977;-76
2022/02/21 00:30:35;;;;;;;25.12;12.50;;;;;;;-0.80;69.57;97558.14;1719178;83;21009;-77
2022/02/21 00:33:01;;;;;;;26.93;12.00;;;;;;;-0.80;69.15;97559.03;1719522;82;20961;-77
2022/02/21 00:35:28;;;;;;;30.35;12.75;;;;;;;-0.80;69.04;97556.84;1719275;83;21012;-77
2022/02/21 00:37:55;;;;;;;23.00;11.12;;;;;;;-0.82;69.10;97546.86;1719500;83;21435;-77
2022/02/21 00:40:21;;;;;;;22.95;9.98;;;;;;;-0.85;69.20;97546.83;1719353;82;20974;-77
2022/02/21 00:42:48;;;;;;;19.60;9.90;;;;;;;-0.82;69.10;97539.06;1719363;83;21032;-77
2022/02/21 00:45:15;;;;;;;20.60;10.03;;;;;;;-0.86;69.21;97542.48;1719337;83;21085;-77
2022/02/21 00:47:42;;;;;;;23.83;10.53;;;;;;;-0.92;69.39;97543.30;1719579;83;21017;-77
2022/02/21 00:50:10;;;;;;;23.18;10.98;;;;;;;-0.94;69.84;97543.30;1719395;82;20997;-77
2022/02/21 00:52:37;;;;;;;21.05;10.55;;;;;;;-1.00;69.85;97530.22;1719432;83;21001;-77
2022/02/21 00:55:04;;;;;;;27.10;11.60;;;;;;;-1.00;69.82;97530.22;1719575;83;21005;-77
2022/02/21 00:57:31;;;;;;;25.65;11.63;;;;;;;-0.97;69.82;97530.26;1719317;83;21104;-76
2022/02/21 00:59:57;;;;;;;22.52;11.38;;;;;;;-0.96;70.33;97525.91;1727434;81;21055;-77
2022/02/21 01:02:24;;;;;;;25.30;11.53;;;;;;;-0.97;71.11;97526.36;1732143;82;20997;-77
2022/02/21 01:04:50;;;;;;;22.60;11.20;;;;;;;-0.97;70.54;97522.45;1732066;82;21004;-77
2022/02/21 01:07:17;;;;;;;27.65;12.35;;;;;;;-0.98;70.33;97515.94;1732305;83;21462;-77
2022/02/21 01:09:43;;;;;;;23.95;12.43;;;;;;;-1.01;70.27;97512.88;1732488;83;21024;-76
2022/02/21 01:12:10;;;;;;;26.12;11.65;;;;;;;-1.01;70.19;97516.78;1732336;83;21414;-76
2022/02/21 01:14:36;;;;;;;27.02;11.48;;;;;;;-1.06;70.27;97510.66;1732468;82;21044;-76
2022/02/21 01:17:03;;;;;;;23.80;11.53;;;;;;;-1.03;70.20;97509.82;1732504;82;21021;-77
2022/02/21 01:19:30;;;;;;;20.85;10.10;;;;;;;-1.03;70.58;97508.11;1732537;83;20973;-78
2022/02/21 01:21:56;;;;;;;25.57;11.63;;;;;;;-1.06;70.56;97505.47;1732507;82;20984;-77
2022/02/21 01:24:23;;;;;;;27.50;12.47;;;;;;;-1.05;70.52;97504.59;1732089;83;21060;-78
2022/02/21 01:26:49;;;;;;;20.62;11.33;;;;;;;-1.07;70.42;97503.28;1726314;83;20976;-76
2022/02/21 01:29:16;;;;;;;25.10;11.40;;;;;;;-1.08;70.87;97499.39;1681079;84;20988;-77
2022/02/21 01:31:43;;;;;;;22.17;10.60;;;;;;;-1.12;70.63;97485.91;1668424;86;21462;-77
2022/02/21 01:34:10;;;;;;;28.25;11.00;;;;;;;-1.14;70.71;97481.11;1691947;85;21016;-77
2022/02/21 01:36:36;;;;;;;22.45;10.80;;;;;;;-1.12;70.73;97489.81;1692100;85;21427;-77
2022/02/21 01:39:03;;;;;;;26.70;11.70;;;;;;;-1.11;70.71;97475.95;1691985;85;21020;-77
2022/02/21 01:41:29;;;;;;;25.88;11.85;;;;;;;-1.12;70.79;97475.51;1692178;85;21001;-77
2022/02/21 01:44:07;;;;;;;25.95;12.95;;;;;;;-1.09;70.76;97471.61;1692345;85;20966;-76
2022/02/21 01:46:33;;;;;;;21.15;10.82;;;;;;;-1.12;72.43;97467.26;1691882;84;21073;-76
2022/02/21 01:49:00;;;;;;;24.95;11.05;;;;;;;-1.13;71.06;97454.27;1692104;85;21262;-76
2022/02/21 01:51:27;;;;;;;24.75;11.35;;;;;;;-1.13;70.95;97452.97;1692232;85;21017;-76
2022/02/21 01:53:56;;;;;;;23.92;11.08;;;;;;;-1.14;70.91;97453.39;1692172;85;21414;-76
2022/02/21 01:56:24;;;;;;;20.92;10.20;;;;;;;-1.12;71.05;97446.45;1692130;85;21021;-76
2022/02/21 01:58:51;;;;;;;26.42;12.55;;;;;;;-1.16;71.04;97441.23;1690414;85;21112;-76
2022/02/21 02:01:19;;;;;;;21.68;10.35;;;;;;;-1.23;71.08;97442.91;1661648;86;21436;-77
2022/02/21 02:03:47;;;;;;;23.95;11.08;;;;;;;-1.20;71.16;97442.94;1662542;86;21514;-77
2022/02/21 02:06:15;;;;;;;23.47;12.20;;;;;;;-1.22;71.10;97440.33;1662485;86;21488;-77
2022/02/21 02:08:42;;;;;;;22.42;11.65;;;;;;;-1.20;71.43;97433.39;1650594;86;21432;-76
2022/02/21 02:11:09;;;;;;;25.50;11.40;;;;;;;-1.15;70.98;97415.66;1662451;86;21017;-77
2022/02/21 02:13:35;;;;;;;21.55;9.48;;;;;;;-1.16;71.16;97410.88;1713346;83;21546;-76
2022/02/21 02:16:02;;;;;;;21.68;9.83;;;;;;;-1.18;71.25;97416.92;1713620;84;21040;-76
2022/02/21 02:18:28;;;;;;;20.48;10.23;;;;;;;-1.22;71.38;97415.63;1713534;84;20961;-77
2022/02/21 02:20:55;;;;;;;20.85;10.82;;;;;;;-1.23;71.31;97408.69;1679104;85;21013;-77
2022/02/21 02:23:22;;;;;;;21.45;11.20;;;;;;;-1.22;71.68;97408.23;1654835;86;21021;-77
2022/02/21 02:25:49;;;;;;;24.23;11.20;;;;;;;-1.26;71.55;97411.67;1713545;84;20984;-77
2022/02/21 02:28:15;;;;;;;23.73;11.15;;;;;;;-1.31;71.60;97407.75;1713500;84;21012;-77
2022/02/21 02:30:41;;;;;;;21.07;10.60;;;;;;;-1.33;71.72;97404.27;1706954;84;21474;-77
2022/02/21 02:33:08;;;;;;;22.05;10.48;;;;;;;-1.33;71.94;97393.87;1719576;83;21009;-77
2022/02/21 02:35:34;;;;;;;26.52;11.28;;;;;;;-1.35;71.85;97399.05;1719659;82;20976;-77
2022/02/21 02:38:04;;;;;;;24.20;11.28;;;;;;;-1.30;72.00;97394.33;1723947;82;21062;-77
2022/02/21 02:40:33;;;;;;;22.58;10.90;;;;;;;-1.25;72.31;97390.88;1725533;82;21030;-77
2022/02/21 02:43:01;;;;;;;24.32;11.73;;;;;;;-1.23;72.08;97374.89;1749340;82;21046;-77
2022/02/21 02:45:28;;;;;;;22.27;11.00;;;;;;;-1.14;71.91;97374.48;1749383;82;21049;-77
2022/02/21 02:47:55;;;;;;;23.20;11.55;;;;;;;-1.12;71.80;97359.78;1749442;82;20975;-77
2022/02/21 02:50:21;;;;;;;26.00;10.63;;;;;;;-1.05;72.02;97355.50;1749273;82;21050;-77
2022/02/21 02:52:48;;;;;;;22.10;10.82;;;;;;;-1.02;72.15;97354.20;1749456;82;21424;-77
2022/02/21 02:55:14;;;;;;;29.37;12.28;;;;;;;-1.00;72.15;97356.39;1749404;82;20978;-77
2022/02/21 02:57:41;;;;;;;25.97;11.45;;;;;;;-0.96;72.15;97360.73;1749202;82;21440;-77
2022/02/21 03:00:13;;;;;;;21.07;10.85;;;;;;;-0.92;72.08;97347.34;1749336;82;21046;-77
2022/02/21 03:02:37;;;;;;;20.37;10.32;;;;;;;-0.86;72.25;97349.55;1748982;82;21043;-78
2022/02/21 03:05:04;;;;;;;19.40;9.98;;;;;;;-0.79;72.05;97336.11;1749364;82;21007;-77
2022/02/21 03:07:31;;;;;;;21.80;10.40;;;;;;;-0.76;72.03;97337.86;1749294;82;21093;-77
2022/02/21 03:09:57;;;;;;;21.65;10.98;;;;;;;-0.71;72.12;97333.58;1749406;82;21006;-77
2022/02/21 03:12:23;;;;;;;21.27;10.35;;;;;;;-0.69;72.04;97322.31;1749302;82;21022;-77
2022/02/21 03:14:50;;;;;;;23.02;10.10;;;;;;;-0.64;72.01;97313.20;1749356;82;21443;-78
2022/02/21 03:17:16;;;;;;;21.97;10.90;;;;;;;-0.61;71.98;97316.25;1749331;82;21026;-78
2022/02/21 03:19:43;;;;;;;20.85;10.40;;;;;;;-0.58;71.88;97305.41;1749470;82;21010;-77
2022/02/21 03:22:10;;;;;;;22.32;10.63;;;;;;;-0.57;71.99;97308.90;1749115;82;21105;-77
2022/02/21 03:24:36;;;;;;;20.20;9.63;;;;;;;-0.56;71.74;97298.91;1749239;82;21015;-77
2022/02/21 03:27:04;;;;;;;22.02;9.98;;;;;;;-0.59;71.84;97301.50;1749456;82;20999;-77
2022/02/21 03:29:30;;;;;;;25.23;11.80;;;;;;;-0.62;71.84;97289.34;1749474;82;21007;-77
2022/02/21 03:31:56;;;;;;;39.13;19.20;;;;;;;-0.62;71.78;97292.39;1741767;82;21037;-77
2022/02/21 03:34:23;;;;;;;51.15;23.67;;;;;;;-0.65;71.82;97288.47;1739627;82;21017;-77
2022/02/21 03:36:50;;;;;;;50.03;23.12;;;;;;;-0.70;71.75;97288.02;1739638;82;20973;-77
2022/02/21 03:39:17;;;;;;;56.98;26.40;;;;;;;-0.71;72.00;97288.88;1739445;82;20985;-76
2022/02/21 03:41:43;;;;;;;50.33;23.50;;;;;;;-0.73;72.63;97281.52;1739740;82;21041;-77
2022/02/21 03:44:10;;;;;;;53.80;25.62;;;;;;;-0.74;72.12;97291.91;1728341;82;21412;-76
2022/02/21 03:46:41;;;;;;;44.10;22.62;;;;;;;-0.73;72.25;97288.44;1710919;82;21004;-76
2022/02/21 03:49:06;;;;;;;44.85;23.85;;;;;;;-0.78;72.13;97279.33;1689328;84;21425;-77
2022/02/21 03:51:32;;;;;;;41.70;21.73;;;;;;;-0.80;72.10;97279.31;1689373;84;20989;-77
2022/02/21 03:53:59;;;;;;;39.18;18.12;;;;;;;-0.80;72.12;97281.92;1689446;84;21039;-77
2022/02/21 03:56:26;;;;;;;27.70;13.72;;;;;;;-0.81;72.26;97277.59;1689528;84;21015;-77
2022/02/21 03:58:52;;;;;;;24.00;12.73;;;;;;;-0.81;72.30;97268.48;1689285;84;21034;-77
2022/02/21 04:01:19;;;;;;;24.90;11.43;;;;;;;-0.84;72.41;97268.88;1689166;84;21492;-76
2022/02/21 04:03:45;;;;;;;27.40;14.38;;;;;;;-0.88;72.82;97258.89;1689497;84;21122;-77
2022/02/21 04:06:12;;;;;;;25.95;13.28;;;;;;;-0.85;72.44;97254.14;1689304;84;21479;-77
2022/02/21 04:08:38;;;;;;;25.35;12.55;;;;;;;-0.88;72.40;97245.04;1689542;84;20988;-76
2022/02/21 04:11:05;;;;;;;25.15;13.18;;;;;;;-0.94;72.56;97236.34;1689455;84;22153;-77
2022/02/21 04:13:32;;;;;;;23.83;13.65;;;;;;;-0.91;72.68;97239.39;1689331;84;21051;-77
2022/02/21 04:15:58;;;;;;;25.70;13.32;;;;;;;-0.94;73.16;97231.15;1689536;85;21030;-76
2022/02/21 04:18:25;;;;;;;27.00;14.13;;;;;;;-0.93;72.83;97218.98;1689419;84;21003;-76
2022/02/21 04:20:51;;;;;;;23.62;13.03;;;;;;;-0.92;72.88;97215.97;1689321;85;21038;-77
2022/02/21 04:23:18;;;;;;;23.02;12.35;;;;;;;-0.95;72.95;97215.08;1689442;84;21369;-77
2022/02/21 04:25:46;;;;;;;30.10;13.30;;;;;;;-0.97;73.01;97208.12;1689478;84;21026;-77
2022/02/21 04:28:17;;;;;;;25.12;13.72;;;;;;;-0.98;73.00;97201.20;1689433;84;21385;-78
2022/02/21 04:30:44;;;;;;;31.68;14.18;;;;;;;-0.99;73.08;97199.02;1697092;83;20997;-75
2022/02/21 04:33:11;;;;;;;29.57;14.47;;;;;;;-0.95;73.17;97202.07;1719688;83;21454;-75
2022/02/21 04:35:39;;;;;;;26.50;14.10;;;;;;;-0.98;73.17;97189.08;1719209;83;21049;-76
2022/02/21 04:38:06;;;;;;;30.92;14.35;;;;;;;-0.99;73.43;97179.51;1719680;82;21043;-76
2022/02/21 04:40:32;;;;;;;24.35;13.62;;;;;;;-0.96;73.69;97174.33;1719695;83;21009;-75
2022/02/21 04:42:59;;;;;;;26.62;13.62;;;;;;;-0.96;73.71;97183.85;1719606;83;21402;-75
2022/02/21 04:45:25;;;;;;;29.12;14.43;;;;;;;-0.96;73.78;97179.53;1719536;83;21107;-75
2022/02/21 04:47:52;;;;;;;23.57;13.18;;;;;;;-0.95;74.20;97170.86;1719585;82;21072;-75
2022/02/21 04:50:19;;;;;;;30.10;14.65;;;;;;;-0.96;73.81;97168.25;1719669;82;21418;-75
2022/02/21 04:52:46;;;;;;;22.32;12.37;;;;;;;-0.95;74.41;97169.55;1719626;82;21009;-76
2022/02/21 04:55:14;;;;;;;26.40;13.00;;;;;;;-0.95;73.83;97164.36;1717193;83;20988;-76
2022/02/21 04:57:41;;;;;;;25.82;13.30;;;;;;;-0.94;74.17;97168.72;1713441;82;21049;-76
2022/02/21 05:00:11;;;;;;;21.33;11.75;;;;;;;-0.87;74.04;97167.42;1749207;82;21093;-76
2022/02/21 05:02:38;;;;;;;22.82;11.78;;;;;;;-0.80;73.90;97162.23;1749167;82;21017;-76
2022/02/21 05:05:07;;;;;;;23.20;12.37;;;;;;;-0.73;73.99;97172.23;1749245;82;20995;-78
2022/02/21 05:07:34;;;;;;;22.00;10.23;;;;;;;-0.65;73.94;97158.34;1749308;82;21049;-76
2022/02/21 05:10:01;;;;;;;19.23;9.43;;;;;;;-0.65;74.09;97155.33;1749076;82;21483;-76
2022/02/21 05:12:27;;;;;;;18.98;9.83;;;;;;;-0.61;74.16;97155.77;1749302;82;21026;-76
2022/02/21 05:14:54;;;;;;;24.87;11.10;;;;;;;-0.55;74.15;97154.89;1749317;82;21054;-76
2022/02/21 05:17:20;;;;;;;19.32;10.70;;;;;;;-0.52;74.19;97144.49;1749222;82;21424;-77
2022/02/21 05:19:47;;;;;;;23.95;10.85;;;;;;;-0.46;74.11;97147.09;1749041;82;21018;-77
2022/02/21 05:22:13;;;;;;;23.57;10.65;;;;;;;-0.41;74.11;97141.45;1749269;82;21062;-76
2022/02/21 05:24:39;;;;;;;18.87;10.98;;;;;;;-0.36;74.29;97145.38;1749088;82;21449;-76
2022/02/21 05:27:06;;;;;;;19.67;10.85;;;;;;;-0.28;74.02;97146.67;1749232;82;21495;-76
2022/02/21 05:29:33;;;;;;;20.95;10.75;;;;;;;-0.19;74.30;97141.89;1749323;82;21002;-76
2022/02/21 05:31:59;;;;;;;17.40;10.88;;;;;;;-0.12;74.67;97132.34;1726191;82;20970;-77
2022/02/21 05:34:26;;;;;;;20.80;10.05;;;;;;;-0.04;73.92;97134.06;1719526;83;21030;-77
2022/02/21 05:36:52;;;;;;;19.80;10.13;;;;;;;0.05;74.27;97124.50;1719781;82;20984;-77
2022/02/21 05:39:19;;;;;;;21.25;10.55;;;;;;;0.10;73.83;97124.06;1719572;83;21013;-77
2022/02/21 05:41:47;;;;;;;17.67;10.32;;;;;;;0.21;75.69;97118.38;1719414;83;20980;-77
2022/02/21 05:44:15;;;;;;;19.00;8.45;;;;;;;0.30;75.51;97110.11;1716938;83;21100;-77
2022/02/21 05:46:43;;;;;;;16.32;9.73;;;;;;;0.41;77.37;97099.66;1683669;85;21414;-77
2022/02/21 05:49:11;;;;;;;16.02;9.00;;;;;;;0.52;76.05;97096.57;1684911;85;21021;-77
2022/02/21 05:51:39;;;;;;;17.05;9.95;;;;;;;0.62;77.83;97089.13;1684844;85;21021;-77
2022/02/21 05:54:06;;;;;;;19.67;9.53;;;;;;;0.74;75.86;97079.08;1684904;85;21039;-77
2022/02/21 05:56:33;;;;;;;17.73;10.10;;;;;;;0.75;74.81;97075.59;1684953;85;21043;-76
2022/02/21 05:59:00;;;;;;;19.80;10.95;;;;;;;0.77;74.58;97067.34;1719289;83;21033;-76
2022/02/21 06:01:26;;;;;;;21.70;10.10;;;;;;;0.75;74.32;97065.62;1726087;82;21065;-76
2022/02/21 06:03:53;;;;;;;26.10;12.00;;;;;;;0.74;74.22;97066.47;1730936;82;21048;-76
2022/02/21 06:06:19;;;;;;;20.57;11.15;;;;;;;0.74;74.71;97067.77;1727182;81;20931;-76
2022/02/21 06:08:46;;;;;;;27.70;11.78;;;;;;;0.72;74.35;97056.06;1710651;83;21085;-76
2022/02/21 06:11:12;;;;;;;20.88;11.28;;;;;;;0.72;74.14;97061.70;1701889;84;20982;-76
2022/02/21 06:13:39;;;;;;;19.95;11.28;;;;;;;0.71;74.27;97054.77;1701610;84;21419;-76
2022/02/21 06:16:06;;;;;;;20.75;11.63;;;;;;;0.72;73.95;97055.19;1701984;84;21046;-76
2022/02/21 06:18:33;;;;;;;25.85;12.63;;;;;;;0.70;74.58;97053.89;1701953;84;21053;-76
2022/02/21 06:21:00;;;;;;;24.63;13.18;;;;;;;0.74;74.15;97053.42;1701851;84;20983;-77
2022/02/21 06:23:26;;;;;;;25.10;12.85;;;;;;;0.74;74.13;97035.17;1701919;84;21018;-77
2022/02/21 06:25:53;;;;;;;26.65;12.95;;;;;;;0.75;74.11;97037.77;1701968;84;21468;-77
2022/02/21 06:28:20;;;;;;;23.25;12.95;;;;;;;0.78;73.98;97029.06;1701859;84;20999;-76
2022/02/21 06:30:46;;;;;;;22.50;12.30;;;;;;;0.80;74.08;97028.63;1710187;83;21044;-76
2022/02/21 06:33:13;;;;;;;28.50;12.60;;;;;;;0.84;74.19;97027.75;1732221;82;21088;-77
2022/02/21 06:35:41;;;;;;;28.52;13.00;;;;;;;0.88;74.37;97024.67;1731944;82;21019;-77
2022/02/21 06:38:07;;;;;;;21.07;12.25;;;;;;;0.90;74.14;97015.95;1730889;82;21023;-77
2022/02/21 06:40:34;;;;;;;24.20;13.08;;;;;;;0.94;74.64;97012.00;1730756;83;21450;-77
2022/02/21 06:43:01;;;;;;;26.50;13.25;;;;;;;0.99;74.33;97014.17;1732612;82;20981;-77
2022/02/21 06:45:29;;;;;;;25.80;12.85;;;;;;;1.02;74.71;97020.22;1732513;83;21000;-77
2022/02/21 06:47:57;;;;;;;21.52;13.22;;;;;;;1.09;74.69;97012.34;1732396;83;21009;-79
2022/02/21 06:50:25;;;;;;;23.77;13.05;;;;;;;1.18;74.17;97007.94;1732577;83;21012;-77
2022/02/21 06:52:53;;;;;;;25.80;12.95;;;;;;;1.26;74.54;97001.77;1731606;82;21378;-77
2022/02/21 06:55:19;;;;;;;25.95;13.00;;;;;;;1.36;74.29;96999.96;1727933;83;20973;-77
2022/02/21 06:57:51;;;;;;;23.57;12.88;;;;;;;1.48;74.96;97000.26;1729059;82;21037;-77
2022/02/21 07:00:18;;;;;;;23.47;12.85;;;;;;;1.61;74.49;96997.96;1730723;83;21016;-77
2022/02/21 07:02:47;;;;;;;27.93;13.83;;;;;;;1.77;74.32;97001.29;1718104;83;21072;-78
2022/02/21 07:05:14;;;;;;;21.27;12.33;;;;;;;1.95;74.34;96979.77;1718470;83;21028;-77
2022/02/21 07:07:42;;;;;;;18.57;11.38;;;;;;;2.14;74.47;96976.91;1718831;83;21064;-78
2022/02/21 07:10:11;;;;;;;21.93;11.30;;;;;;;2.32;73.96;96961.00;1719164;83;21028;-79
2022/02/21 07:12:38;;;;;;;16.30;10.43;;;;;;;2.55;73.77;96962.45;1718461;82;21593;-76
2022/02/21 07:15:06;;;;;;;18.50;11.55;;;;;;;2.76;73.75;96947.31;1718813;83;21029;-77
2022/02/21 07:17:43;;;;;;;26.10;14.35;;;;;;;3.00;73.60;96943.89;1718967;82;21466;-77
2022/02/21 07:20:12;;;;;;;33.78;16.50;;;;;;;3.21;73.25;96938.75;1748844;82;21443;-77
2022/02/21 07:22:42;;;;;;;37.38;19.32;;;;;;;3.43;72.76;96931.38;1727761;82;21399;-77
2022/02/21 07:25:12;;;;;;;40.65;18.82;;;;;;;3.61;72.00;96921.42;1719238;82;21041;-77
2022/02/21 07:27:45;;;;;;;40.88;17.15;;;;;;;3.72;71.67;96917.30;1719208;83;21391;-77
2022/02/21 07:30:14;;;;;;;39.30;17.33;;;;;;;3.81;70.33;96928.04;1719981;82;21407;-77
2022/02/21 07:32:43;;;;;;;33.10;15.32;;;;;;;3.87;70.54;96928.38;1720543;82;21451;-78
2022/02/21 07:35:11;;;;;;;27.52;13.80;;;;;;;3.88;69.53;96928.35;1719084;83;21052;-77
2022/02/21 07:37:42;;;;;;;34.43;14.60;;;;;;;3.90;69.90;96925.70;1719063;82;21036;-77
2022/02/21 07:40:11;;;;;;;25.45;11.95;;;;;;;3.92;69.87;96917.34;1719190;83;21017;-77
2022/02/21 07:42:39;;;;;;;19.48;10.65;;;;;;;3.92;68.88;96918.66;1719128;83;21510;-78
2022/02/21 07:45:07;;;;;;;24.47;11.20;;;;;;;3.93;69.13;96916.02;1718957;83;21021;-78
2022/02/21 07:47:44;;;;;;;18.87;11.20;;;;;;;3.96;68.87;96909.38;1719247;83;20989;-79
2022/02/21 07:50:11;;;;;;;24.37;11.33;;;;;;;3.98;68.83;96909.81;1719111;82;21005;-78
2022/02/21 07:52:37;;;;;;;22.98;10.85;;;;;;;3.98;68.81;96905.89;1719286;83;20973;-78
2022/02/21 07:55:05;;;;;;;29.98;10.48;;;;;;;4.00;68.80;96906.70;1719023;83;20988;-78
2022/02/21 07:57:32;;;;;;;26.52;12.73;;;;;;;4.02;68.64;96899.69;1718943;83;21017;-78
2022/02/21 07:59:58;;;;;;;18.52;9.25;;;;;;;4.06;68.66;96898.27;1719219;83;21032;-78
2022/02/21 08:02:26;;;;;;;22.20;8.08;;;;;;;4.11;68.44;96886.35;1728803;82;21057;-78
2022/02/21 08:04:53;;;;;;;19.15;8.48;;;;;;;4.17;68.42;96882.31;1731734;83;21424;-79
2022/02/21 08:07:19;;;;;;;15.00;7.90;;;;;;;4.25;68.28;96882.58;1732157;82;21012;-79
2022/02/21 08:09:48;;;;;;;17.57;8.50;;;;;;;4.32;68.13;96867.13;1732187;82;21007;-79
2022/02/21 08:12:14;;;;;;;14.45;7.50;;;;;;;4.40;68.08;96863.86;1732031;82;21060;-78
2022/02/21 08:14:41;;;;;;;15.68;7.78;;;;;;;4.47;67.87;96854.97;1731954;83;21020;-78
2022/02/21 08:17:07;;;;;;;11.25;7.40;;;;;;;4.57;67.76;96854.75;1732350;83;20985;-79
2022/02/21 08:19:35;;;;;;;14.38;7.47;;;;;;;4.69;67.63;96857.06;1731717;82;21032;-77
2022/02/21 08:22:02;;;;;;;14.68;6.95;;;;;;;4.81;67.48;96849.80;1711227;82;20987;-82
2022/02/21 08:24:59;;;;;;;66.20;31.60;;;;;;;4.94;67.22;96848.57;1728633;83;21065;-81
2022/02/21 08:27:27;;;;;;;22.22;8.98;;;;;;;5.06;66.82;96842.61;1677738;83;21056;-79
2022/02/21 08:29:54;;;;;;;20.15;9.05;;;;;;;5.20;66.78;96842.23;1714638;83;21051;-77
2022/02/21 08:32:20;;;;;;;18.00;7.62;;;;;;;5.31;66.66;96838.02;1713634;82;21028;-78
2022/02/21 08:34:47;;;;;;;15.50;7.75;;;;;;;5.42;66.06;96837.27;1745118;82;21020;-76
2022/02/21 08:37:14;;;;;;;16.77;7.33;;;;;;;5.55;65.87;96825.52;1730889;81;20993;-78
2022/02/21 08:39:41;;;;;;;13.88;6.60;;;;;;;5.67;65.70;96819.48;1730173;82;21512;-77
2022/02/21 08:42:08;;;;;;;10.72;6.53;;;;;;;5.79;65.34;96823.53;1696762;84;20979;-77
2022/02/21 08:44:35;;;;;;;12.37;5.70;;;;;;;5.88;64.59;96812.73;1696771;84;21023;-77
2022/02/21 08:47:03;;;;;;;13.40;5.62;;;;;;;5.99;64.33;96799.28;1696037;84;21100;-77
2022/02/21 08:49:30;;;;;;;9.98;5.70;;;;;;;6.11;64.09;96798.52;1668833;84;21044;-77
2022/02/21 08:51:57;;;;;;;9.23;5.50;;;;;;;6.20;64.04;96799.07;1667608;86;21028;-77
2022/02/21 08:54:25;;;;;;;9.28;6.15;;;;;;;6.28;63.07;96793.59;1674761;84;20965;-77
2022/02/21 08:56:54;;;;;;;12.82;5.75;;;;;;;6.42;63.27;96786.56;1679259;85;21492;-77
2022/02/21 08:59:20;;;;;;;10.65;5.83;;;;;;;6.56;62.37;96780.00;1679215;85;21068;-77
2022/02/21 09:01:55;;;;;;;12.28;5.53;;;;;;;6.71;62.86;96788.69;1678309;85;21442;-77
2022/02/21 09:04:18;;;;;;;10.10;6.50;;;;;;;6.80;62.36;96780.93;1725007;83;21064;-77
2022/02/21 09:06:48;;;;;;;14.30;6.17;;;;;;;6.90;60.48;96774.03;1722875;83;21119;-78
2022/02/21 09:09:15;;;;;;;9.33;6.42;;;;;;;7.02;61.65;96767.48;1725271;83;21004;-78
2022/02/21 09:11:42;;;;;;;11.00;6.12;;;;;;;7.16;61.73;96765.22;1726811;83;21082;-78
2022/02/21 09:14:09;;;;;;;11.70;5.83;;;;;;;7.38;61.93;96765.30;1726545;83;21033;-78
2022/02/21 09:16:36;;;;;;;12.43;6.10;;;;;;;7.60;60.69;96768.45;1726368;83;21012;-77
2022/02/21 09:19:05;;;;;;;12.37;6.60;;;;;;;7.73;59.95;96763.56;1723761;83;21005;-78
2022/02/21 09:21:34;;;;;;;10.58;6.00;;;;;;;7.95;60.55;96765.39;1716091;82;20954;-77
2022/02/21 09:24:01;;;;;;;10.50;5.80;;;;;;;8.15;60.39;96760.63;1711579;83;21064;-78
2022/02/21 09:26:29;;;;;;;9.45;6.60;;;;;;;8.31;58.78;96757.41;1717484;83;21048;-76
2022/02/21 09:28:58;;;;;;;10.30;5.92;;;;;;;8.45;59.36;96746.27;1726049;82;20977;-79
2022/02/21 09:31:26;;;;;;;11.95;6.12;;;;;;;8.62;57.84;96749.56;1723409;82;21013;-77
2022/02/21 09:33:53;;;;;;;10.80;6.42;;;;;;;8.80;57.76;96743.12;1716924;82;21017;-78
2022/02/21 09:36:19;;;;;;;15.55;7.50;;;;;;;8.94;57.72;96733.27;1724048;83;21022;-78
2022/02/21 09:38:48;;;;;;;12.80;8.28;;;;;;;9.10;56.73;96725.53;1726436;82;21404;-75
2022/02/21 09:41:14;;;;;;;11.80;6.30;;;;;;;9.22;57.40;96727.62;1725951;82;21097;-77
2022/02/21 09:43:41;;;;;;;10.55;6.67;;;;;;;9.29;56.03;96729.98;1726270;82;21471;-77
2022/02/21 09:46:19;;;;;;;10.20;6.12;;;;;;;9.34;55.33;96722.24;1725143;82;21040;-77
2022/02/21 09:48:51;;;;;;;13.48;6.80;;;;;;;9.31;54.28;96717.56;1732585;82;21060;-77
2022/02/21 09:51:21;;;;;;;10.98;6.17;;;;;;;9.35;55.88;96719.98;1744237;82;21045;-78
2022/02/21 09:53:50;;;;;;;9.95;6.20;;;;;;;9.45;54.87;96715.16;1734248;82;21106;-78
2022/02/21 09:56:17;;;;;;;16.02;6.62;;;;;;;9.51;55.12;96714.03;1726666;83;21075;-82
2022/02/21 09:58:45;;;;;;;11.20;6.20;;;;;;;9.52;54.35;96718.38;1727147;83;20964;-77
2022/02/21 10:01:12;;;;;;;11.38;6.65;;;;;;;9.58;55.04;96709.28;1726864;83;21068;-77
2022/02/21 10:03:43;;;;;;;11.75;6.45;;;;;;;9.66;53.92;96704.50;1724491;83;20995;-77
2022/02/21 10:06:26;;;;;;;13.48;6.55;;;;;;;9.76;53.29;96698.33;1736984;82;21008;-77
2022/02/21 10:09:10;;;;;;;11.03;7.05;;;;;;;9.96;54.25;96693.87;1742470;82;21039;-78
2022/02/21 10:11:48;;;;;;;12.63;6.45;;;;;;;10.17;54.24;96685.33;1730768;82;21036;-78
2022/02/21 10:14:23;;;;;;;15.25;6.67;;;;;;;10.38;53.72;96681.25;1695769;83;21020;-78
2022/02/21 10:16:57;;;;;;;12.60;7.00;;;;;;;10.51;52.67;96681.03;1707241;83;21028;-78
2022/02/21 10:19:36;;;;;;;11.88;6.80;;;;;;;10.67;51.95;96671.00;1703624;83;20993;-78
2022/02/21 10:22:13;;;;;;;12.65;7.62;;;;;;;10.82;52.96;96670.20;1689667;85;21048;-77
2022/02/21 10:24:46;;;;;;;15.38;6.75;;;;;;;10.92;52.60;96661.30;1689810;84;21435;-77
2022/02/21 10:27:23;;;;;;;14.28;7.65;;;;;;;10.98;52.32;96657.47;1690090;85;21032;-77
2022/02/21 10:30:04;;;;;;;11.63;7.55;;;;;;;11.00;50.98;96662.21;1690018;84;21099;-77
2022/02/21 10:32:35;;;;;;;13.80;7.72;;;;;;;10.99;50.95;96646.38;1689491;84;21073;-78
2022/02/21 10:35:20;;;;;;;12.98;8.33;;;;;;;10.91;51.25;96642.81;1689792;85;21040;-78
2022/02/21 10:37:58;;;;;;;12.30;8.25;;;;;;;10.83;50.86;96633.48;1698556;83;21003;-78
2022/02/21 10:40:35;;;;;;;14.10;7.60;;;;;;;10.82;51.45;96630.91;1708224;83;21016;-78
2022/02/21 10:43:17;;;;;;;15.30;7.58;;;;;;;10.85;52.00;96624.14;1733906;82;21078;-77
2022/02/21 10:45:45;;;;;;;13.30;9.05;;;;;;;10.99;51.58;96615.44;1735954;82;20996;-78
2022/02/21 10:48:21;;;;;;;15.68;9.40;;;;;;;11.10;51.47;96617.52;1692438;85;21070;-77
2022/02/21 10:50:58;;;;;;;13.35;7.35;;;;;;;11.20;51.17;96604.14;1692340;85;21135;-77
2022/02/21 10:53:37;;;;;;;12.23;7.20;;;;;;;11.35;50.36;96602.92;1691397;85;21476;-77
2022/02/21 10:56:04;;;;;;;12.75;7.72;;;;;;;11.59;50.51;96597.19;1690800;85;21047;-77
2022/02/21 10:58:30;;;;;;;10.35;6.90;;;;;;;11.71;50.71;96589.84;1691425;85;21032;-77
2022/02/21 11:00:58;;;;;;;13.15;9.40;;;;;;;11.70;48.55;96589.47;1690897;83;21024;-76
2022/02/21 11:03:28;;;;;;;21.00;12.15;;;;;;;11.62;49.51;96572.66;1685199;84;21422;-77
2022/02/21 11:05:59;;;;;;;14.10;8.50;;;;;;;11.54;49.00;96576.70;1685055;85;21090;-77
2022/02/21 11:08:29;;;;;;;14.50;8.40;;;;;;;11.37;49.18;96569.20;1685151;85;21025;-77
2022/02/21 11:11:11;;;;;;;17.32;9.45;;;;;;;11.26;49.10;96560.53;1685023;85;21069;-77
2022/02/21 11:13:37;;;;;;;21.42;8.15;;;;;;;11.24;49.69;96560.23;1684946;85;21481;-77
2022/02/21 11:16:05;;;;;;;14.13;7.75;;;;;;;11.20;49.22;96556.87;1685048;85;21017;-77
2022/02/21 11:18:34;;;;;;;17.98;8.23;;;;;;;11.30;49.63;96558.56;1685052;85;21072;-77
2022/02/21 11:21:03;;;;;;;15.98;8.00;;;;;;;11.34;48.92;96559.61;1684959;85;21537;-77
2022/02/21 11:23:32;;;;;;;10.95;6.58;;;;;;;11.62;49.36;96548.78;1684889;85;21024;-77
2022/02/21 11:26:07;;;;;;;13.10;7.35;;;;;;;12.07;48.33;96537.40;1697721;83;21001;-78
2022/02/21 11:29:00;;;;;;;13.08;6.70;;;;;;;12.30;48.27;96534.31;1717541;83;21009;-76